METAR Data
IDs: Format: Raw Decoded Include TAF

Data at: 0235 UTC 25 Jan 2020

PAUT 250215Z AUTO 02010G15KT 10SM OVC028 M03/M07 A2970 RMK AO2 T10271068 PWINO
PAUT 250155Z AUTO 10SM OVC028 M03/M07 A2970 RMK AO2 T10301069 PWINO
PAUT 250135Z AUTO 10SM OVC028 M03/M07 A2970 RMK AO2 T10291070 PWINO
PAUT 250115Z AUTO 10SM OVC028 M03/M07 A2970 RMK AO2 T10271070 PWINO
PAUT 250055Z AUTO 01011G15KT 10SM OVC030 M03/M07 A2970 RMK AO2 T10271070 PWINO
PAUT 250035Z AUTO 36010KT 10SM BKN030 M03/M07 A2970 RMK AO2 T10271067 PWINO
PAUT 250015Z AUTO 01011KT 10SM OVC030 M03/M06 A2971 RMK AO2 T10271065 PWINO
PAUT 242355Z AUTO 10SM OVC030 M03/M06 A2971 RMK AO2 T10261065 11023 21040 PWINO
PAUT 242335Z AUTO 10SM OVC028 M03/M06 A2972 RMK AO2 T10261064 PWINO
PAUT 242315Z AUTO 10SM OVC028 M02/M06 A2972 RMK AO2 T10231064 PWINO
PAUT 242255Z AUTO 02008KT 10SM OVC026 M02/M06 A2972 RMK AO2 T10231065 PWINO
PAUT 242235Z AUTO 10SM OVC026 M02/M06 A2972 RMK AO2 T10251065 PWINO
PAUT 242215Z AUTO 10SM OVC026 M03/M07 A2972 RMK AO2 T10301070 PWINO
PAUT 242155Z AUTO 10SM OVC026 M03/M07 A2973 RMK AO2 T10301071 PWINO
PAUT 242135Z AUTO 35007KT 10SM OVC028 M03/M07 A2973 RMK AO2 T10291070 PWINO
PAUT 242115Z AUTO 36008KT 10SM OVC030 M03/M07 A2973 RMK AO2 T10301067 PWINO
PAUT 242055Z AUTO 01009KT 10SM OVC030 M03/M07 A2974 RMK AO2 T10321071 PWINO
PAUT 242035Z AUTO 01012KT 10SM OVC030 M03/M07 A2974 RMK AO2 T10341071 PWINO
PAUT 242015Z AUTO 02014KT 10SM OVC030 M03/M07 A2974 RMK AO2 T10331070 PWINO
PAUT 241955Z AUTO 03015KT 10SM OVC030 M03/M07 A2974 RMK AO2 T10301068 PWINO
PAUT 241935Z AUTO 10SM OVC030 M03/M07 A2974 RMK AO2 T10301070 PWINO
PAUT 241915Z AUTO 10SM OVC030 M03/M07 A2974 RMK AO2 T10321071 PWINO
PAUT 241855Z AUTO 10SM BKN030 M03/M07 A2973 RMK AO2 T10321075 PWINO
PAUT 241835Z AUTO 10SM SCT030 M03/M08 A2973 RMK AO2 T10351076 PWINO
PAUT 241815Z AUTO 02012KT 10SM BKN030 M04/M08 A2973 RMK AO2 T10361076 PWINO
PAUT 241755Z AUTO 05010KT 10SM SCT030 M03/M08 A2973 RMK AO2 T10341078 11027 21035 PWINO
PAUT 241735Z AUTO 04010KT 10SM SCT028 M03/M08 A2973 RMK AO2 T10351076 PWINO
PAUT 241715Z AUTO 03008KT 10SM SCT028 M03/M08 A2973 RMK AO2 T10351076 PWINO
PAUT 241655Z AUTO 05012KT 10SM CLR M03/M08 A2973 RMK AO2 T10311085 PWINO
PAUT 241635Z AUTO 05011KT 10SM SCT031 M03/M08 A2974 RMK AO2 T10311082 PWINO
PAUT 241615Z AUTO 05011KT 10SM CLR M03/M09 A2974 RMK AO2 T10311086 PWINO
PAUT 241555Z AUTO 06009KT 10SM CLR M03/M08 A2974 RMK AO2 T10311083 PWINO
PAUT 241535Z AUTO 06011G14KT 10SM CLR M03/M08 A2974 RMK AO2 T10311083 PWINO
PAUT 241515Z AUTO 06011KT 10SM CLR M03/M08 A2974 RMK AO2 T10311085 PWINO
PAUT 241455Z AUTO 07018KT 10SM CLR M03/M09 A2974 RMK AO2 T10301086 PWINO
PAUT 241435Z AUTO 07012KT 10SM CLR M03/M08 A2975 RMK AO2 T10301076 PWINO
PAUT 241415Z AUTO 07017KT 10SM SCT027 M03/M08 A2976 RMK AO2 T10301080 PWINO
PAUT 241355Z AUTO 07014KT 10SM SCT027 M03/M08 A2977 RMK AO2 T10301081 PWINO
PAUT 241335Z AUTO 10SM SCT027 M03/M09 A2977 RMK AO2 T10301087 PWINO
PAUT 241315Z AUTO 07016G21KT 10SM SCT027 M03/M08 A2978 RMK AO2 T10301083 PWINO
PAUT 241255Z AUTO 08017G21KT 10SM BKN027 BKN033 M03/M08 A2978 RMK AO2 T10291078 PWINO
PAUT 241235Z AUTO 08018G21KT 10SM OVC027 M03/M07 A2979 RMK AO2 T10271074 PWINO
PAUT 241215Z AUTO 08017KT 10SM BKN027 M03/M08 A2979 RMK AO2 T10291076 PWINO
PAUT 241155Z AUTO 08019G23KT 10SM SCT027 M03/M08 A2979 RMK AO2 T10301080 11022 21033 PWINO
PAUT 241135Z AUTO 08019G24KT 10SM SCT025 M03/M08 A2979 RMK AO2 T10301076 PWINO
PAUT 241115Z AUTO 07015G21KT 10SM BKN025 M03/M07 A2980 RMK AO2 T10281073 PWINO
PAUT 241055Z AUTO 08017KT 10SM OVC025 M03/M07 A2980 RMK AO2 T10271070 PWINO
PAUT 241035Z AUTO 08017G23KT 10SM OVC023 M03/M06 A2980 RMK AO2 T10261065 PWINO
PAUT 241015Z AUTO 09018KT 10SM OVC023 M02/M06 A2980 RMK AO2 T10231060 PWINO
PAUT 240955Z AUTO 08013G23KT 10SM OVC023 M02/M06 A2981 RMK AO2 T10241062 PWINO
PAUT 240935Z AUTO 08010G21KT 10SM OVC025 M02/M06 A2981 RMK AO2 T10231061 PWINO
PAUT 240915Z AUTO 10011G22KT 10SM OVC027 M03/M07 A2981 RMK AO2 T10261067 PWINO
PAUT 240855Z AUTO 09018G22KT 10SM OVC027 M02/M07 A2981 RMK AO2 T10251066 400021057 PWINO
PAUT 240835Z AUTO 09012G22KT 10SM OVC027 M02/M07 A2981 RMK AO2 T10251067 PWINO
PAUT 240815Z AUTO 07012G17KT 10SM OVC025 M02/M06 A2981 RMK AO2 T10241065 PWINO
PAUT 240755Z AUTO 08013G20KT 10SM OVC025 M02/M06 A2981 RMK AO2 T10221062 PWINO
PAUT 240735Z AUTO 06006KT 10SM OVC025 M02/M06 A2981 RMK AO2 T10251062 PWINO
PAUT 240715Z AUTO 06007KT 10SM OVC025 M02/M06 A2981 RMK AO2 T10241061 PWINO
PAUT 240655Z AUTO 10SM OVC027 M03/M07 A2981 RMK AO2 T10301067 PWINO
PAUT 240635Z AUTO 10SM OVC027 M03/M07 A2982 RMK AO2 T10311070 PWINO
PAUT 240615Z AUTO 02018G24KT 10SM OVC027 M03/M07 A2982 RMK AO2 T10331075 PWINO
PAUT 240555Z AUTO 03019KT 10SM OVC025 M03/M07 A2982 RMK AO2 T10311073 10000 21031 PWINO
PAUT 240535Z AUTO 10SM OVC025 M03/M07 A2983 RMK AO2 T10271070 PWINO
PAUT 240515Z AUTO 10SM BKN027 OVC032 M02/M06 A2982 RMK AO2 T10221065 PWINO
PAUT 240455Z AUTO 10SM OVC029 M02/M06 A2983 RMK AO2 T10161061 PWINO
PAUT 240435Z AUTO 10SM OVC029 M01/M06 A2983 RMK AO2 T10151061 PWINO
PAUT 240415Z AUTO 08013KT 10SM OVC029 M01/M06 A2983 RMK AO2 T10151060 PWINO
PAUT 240355Z AUTO 08013G19KT 10SM OVC029 M01/M06 A2983 RMK AO2 T10151060 PWINO
PAUT 240335Z AUTO 10SM BKN029 BKN035 OVC042 M01/M06 A2983 RMK AO2 T10151056 PWINO
PAUT 240315Z AUTO 07015KT 10SM BKN029 OVC044 M01/M05 A2983 RMK AO2 T10121055 PWINO
PAUT 240255Z AUTO 10SM BKN027 BKN034 OVC044 M01/M05 A2983 RMK AO2 T10121055 PWINO
PAUT 240235Z AUTO 10SM OVC025 M01/M05 A2983 RMK AO2 T10111050 PWINO
PAUT 240215Z AUTO 10SM BKN027 OVC040 M01/M05 A2983 RMK AO2 T10111051 PWINO
PAUT 240155Z AUTO 10SM BKN025 OVC038 M01/M05 A2984 RMK AO2 T10061050 PWINO
PAUT 240135Z AUTO 10SM SCT025 OVC034 00/M05 A2984 RMK AO2 T10051047 PWINO
PAUT 240115Z AUTO 10SM SCT026 OVC032 00/M05 A2983 RMK AO2 T10051048 PWINO
PAUT 240055Z AUTO 10SM BKN028 OVC035 00/M04 A2984 RMK AO2 T10051045 PWINO
PAUT 240035Z AUTO 10SM SCT023 BKN028 OVC037 00/M04 A2984 RMK AO2 T10021042 PWINO
PAUT 240015Z AUTO 10SM SCT025 BKN032 OVC039 00/M04 A2984 RMK AO2 T10011040 PWINO
PAUT 232355Z AUTO 10SM SCT025 OVC039 00/M04 A2984 RMK AO2 T00001040 10002 21035 PWINO
PAUT 232335Z AUTO 10SM OVC037 00/M04 A2985 RMK AO2 T00001039 PWINO
PAUT 232315Z AUTO 10SM SCT025 OVC033 00/M04 A2985 RMK AO2 T00001040 PWINO
PAUT 232255Z AUTO 10SM SCT025 OVC033 00/M04 A2985 RMK AO2 T00001040 PWINO
PAUT 232235Z AUTO 10SM SCT026 OVC034 00/M04 A2985 RMK AO2 T00001040 PWINO
PAUT 232215Z AUTO 10SM SCT026 OVC034 00/M04 A2986 RMK AO2 T00001040 PWINO
PAUT 232155Z AUTO 10SM SCT025 OVC034 00/M04 A2987 RMK AO2 T00001041 PWINO
PAUT 232135Z AUTO 10SM OVC033 M01/M06 A2987 RMK AO2 T10071056 PWINO
PAUT 232115Z AUTO 10SM OVC033 M01/M06 A2987 RMK AO2 T10101062 PWINO
PAUT 232055Z AUTO 10SM BKN033 M02/M06 A2987 RMK AO2 T10161063 PWINO
PAUT 232035Z AUTO 10SM SCT031 M02/M07 A2987 RMK AO2 T10201066 PWINO
PAUT 232015Z AUTO 08007KT 10SM CLR M01/M06 A2988 RMK AO2 T10081063 PWINO
PAUT 231955Z AUTO 08009KT 10SM CLR M01/M07 A2988 RMK AO2 T10131066 PWINO
PAUT 231935Z AUTO 10003KT 10SM CLR M02/M07 A2988 RMK AO2 T10251074 PWINO
PAUT 231915Z AUTO 10004KT 10SM CLR M03/M08 A2988 RMK AO2 T10271077 PWINO
PAUT 231855Z AUTO 11005KT 10SM CLR M02/M07 A2988 RMK AO2 T10251075 PWINO
PAUT 231835Z AUTO 15004KT 10SM CLR M03/M08 A2988 RMK AO2 T10301082 PWINO
PAUT 231815Z AUTO 12005KT 10SM SCT036 M02/M07 A2988 RMK AO2 T10231068 PWINO
PAUT 231755Z AUTO 00000KT 10SM CLR M02/M07 A2988 RMK AO2 T10171071 11015 21057 PWINO
PAUT 231735Z AUTO 00000KT 10SM CLR M02/M07 A2988 RMK AO2 T10191071 PWINO
PAUT 231715Z AUTO 05004KT 10SM CLR M02/M07 A2988 RMK AO2 T10211072 PWINO
PAUT 231655Z AUTO 06005KT 10SM CLR M03/M08 A2989 RMK AO2 T10261077 PWINO
PAUT 231635Z AUTO 08008KT 10SM CLR M03/M08 A2989 RMK AO2 T10281077 PWINO
PAUT 231615Z AUTO 10005KT 10SM CLR M04/M08 A2990 RMK AO2 T10361078 PWINO
PAUT 231555Z AUTO 13004KT 10SM CLR M03/M08 A2990 RMK AO2 T10331083 PWINO
PAUT 231535Z AUTO 10003KT 10SM CLR M03/M08 A2990 RMK AO2 T10331083 PWINO
PAUT 231515Z AUTO 07004KT 10SM CLR M03/M09 A2991 RMK AO2 T10291087 PWINO
PAUT 231455Z AUTO 07004KT 10SM CLR M03/M10 A2991 RMK AO2 T10281098 PWINO